Time;durP1;ratioP1;P1;durP2;ratioP2;P2;SDS_P1;SDS_P2;PMS_P1;PMS_P2;Temp;Humidity;BMP_temperature;BMP_pressure;BME280_temperature;BME280_humidity;BME280_pressure;Samples;Min_cycle;Max_cycle;Signal;HPM_P1;HPM_P2
2022/04/30 00:01:53;;;;;;;;;;;;;;;7.44;43.04;96257.44;5008404;28;19990;-63
2022/04/30 00:04:18;;;;;;;;;;;;;;;7.69;43.06;96257.81;5020205;28;20432;-64
2022/04/30 00:06:43;;;;;;;;;;;;;;;7.10;43.93;96258.72;5017522;28;20062;-64
2022/04/30 00:09:09;;;;;;;;;;;;;;;6.73;45.12;96254.97;5015813;28;20127;-65
2022/04/30 00:11:34;;;;;;;;;;;;;;;6.49;45.41;96250.06;5019094;28;20336;-64
2022/04/30 00:13:59;;;;;;;;;;;;;;;6.94;45.11;96245.22;5020229;28;20509;-64
2022/04/30 00:16:24;;;;;;;;;;;;;;;6.14;46.57;96252.16;5019156;28;20318;-63
2022/04/30 00:18:49;;;;;;;;;;;;;;;5.93;47.44;96252.22;5019441;28;20020;-65
2022/04/30 00:21:15;;;;;;;;;;;;;;;6.29;47.04;96249.16;5019246;28;19974;-64
2022/04/30 00:23:40;;;;;;;;;;;;;;;6.36;46.95;96252.94;5018883;28;19993;-65
2022/04/30 00:26:05;;;;;;;;;;;;;;;6.98;45.13;96247.47;5019133;28;19973;-63
2022/04/30 00:28:31;;;;;;;;;;;;;;;7.50;43.97;96250.72;5019874;28;20274;-65
2022/04/30 00:30:56;;;;;;;;;;;;;;;6.08;46.94;96253.53;5015231;28;20000;-63
2022/04/30 00:33:22;;;;;;;;;;;;;;;6.19;46.95;96255.25;4999158;28;19966;-64
2022/04/30 00:35:48;;;;;;;;;;;;;;;6.92;45.45;96252.47;5012506;28;19990;-65
2022/04/30 00:38:15;;;;;;;;;;;;;;;7.53;43.79;96243.34;5007966;28;20009;-62
2022/04/30 00:40:41;;;;;;;;;;;;;;;7.42;43.78;96248.81;5006558;28;19989;-62
2022/04/30 00:43:06;;;;;;;;;;;;;;;7.09;44.96;96249.13;5017306;28;19989;-62
2022/04/30 00:45:32;;;;;;;;;;;;;;;7.73;43.43;96243.28;5006397;28;20434;-61
2022/04/30 00:47:58;;;;;;;;;;;;;;;8.01;43.17;96245.16;5008057;28;20376;-61
2022/04/30 00:50:23;;;;;;;;;;;;;;;7.99;42.74;96250.59;5009274;28;19989;-61
2022/04/30 00:52:52;;;;;;;;;;;;;;;7.79;43.20;96248.03;5009234;28;20373;-62
2022/04/30 00:55:19;;;;;;;;;;;;;;;7.78;43.28;96249.03;5011757;28;20568;-60
2022/04/30 00:57:44;;;;;;;;;;;;;;;8.27;42.28;96241.84;5006956;28;20016;-61
2022/04/30 01:00:12;;;;;;;;;;;;;;;8.55;41.88;96245.31;5010402;28;19994;-61
2022/04/30 01:02:38;;;;;;;;;;;;;;;8.73;41.22;96241.81;5014751;28;19986;-62
2022/04/30 01:05:03;;;;;;;;;;;;;;;8.40;41.50;96244.97;5003248;28;19962;-61
2022/04/30 01:07:29;;;;;;;;;;;;;;;8.62;41.64;96250.00;5006065;28;19986;-60
2022/04/30 01:09:54;;;;;;;;;;;;;;;8.63;41.21;96249.00;5010118;28;20016;-61
2022/04/30 01:12:20;;;;;;;;;;;;;;;8.68;41.03;96246.75;5005863;28;20079;-61
2022/04/30 01:14:45;;;;;;;;;;;;;;;8.50;41.77;96239.59;5014871;28;19999;-62
2022/04/30 01:17:11;;;;;;;;;;;;;;;8.50;41.44;96236.94;5020046;28;19964;-60
2022/04/30 01:19:38;;;;;;;;;;;;;;;8.40;41.96;96244.16;5021045;28;20004;-61
2022/04/30 01:22:08;;;;;;;;;;;;;;;8.68;40.88;96236.94;5022622;28;19970;-61
2022/04/30 01:24:33;;;;;;;;;;;;;;;8.91;40.86;96233.84;5003073;28;20063;-62
2022/04/30 01:27:00;;;;;;;;;;;;;;;9.00;40.52;96234.78;5017384;28;19994;-62
2022/04/30 01:29:25;;;;;;;;;;;;;;;8.40;41.62;96234.34;5018241;28;20348;-61
2022/04/30 01:37:25;;;;;;;;;;;;;;;7.30;44.38;96226.09;5021319;28;20515;-60
2022/04/30 01:39:56;;;;;;;;;;;;;;;7.84;43.20;96215.78;5013508;28;20081;-62
2022/04/30 01:42:21;;;;;;;;;;;;;;;7.70;43.98;96225.03;5021906;28;20348;-61
2022/04/30 01:44:46;;;;;;;;;;;;;;;7.42;44.01;96214.38;5008259;28;19969;-62
2022/04/30 01:47:12;;;;;;;;;;;;;;;6.51;46.44;96219.03;5022374;28;19993;-62
2022/04/30 01:49:37;;;;;;;;;;;;;;;7.45;44.12;96219.34;5008521;28;19978;-60
2022/04/30 01:52:06;;;;;;;;;;;;;;;7.12;44.83;96211.78;5021678;28;20004;-62
2022/04/30 01:54:31;;;;;;;;;;;;;;;7.10;45.13;96213.72;5007573;28;20457;-60
2022/04/30 01:56:56;;;;;;;;;;;;;;;7.31;44.72;96206.59;5008265;28;20072;-60
2022/04/30 01:59:21;;;;;;;;;;;;;;;7.33;44.64;96213.41;5008598;28;19989;-61
2022/04/30 02:01:47;;;;;;;;;;;;;;;7.19;44.82;96204.09;5022017;28;19998;-60
2022/04/30 02:04:12;;;;;;;;;;;;;;;7.38;44.55;96199.75;5007377;28;20283;-61
2022/04/30 02:06:37;;;;;;;;;;;;;;;7.59;43.60;96196.03;5008726;28;19988;-61
2022/04/30 02:09:02;;;;;;;;;;;;;;;7.92;42.74;96191.19;5010788;28;20074;-62
2022/04/30 02:11:28;;;;;;;;;;;;;;;7.89;42.74;96186.19;5019893;28;20001;-62
2022/04/30 02:13:53;;;;;;;;;;;;;;;7.72;43.40;96187.78;5015946;28;19973;-61
2022/04/30 02:16:21;;;;;;;;;;;;;;;7.08;44.65;96183.06;5020269;28;20028;-62
2022/04/30 02:18:47;;;;;;;;;;;;;;;7.21;44.34;96186.25;5013479;28;20466;-60
2022/04/30 02:21:12;;;;;;;;;;;;;;;7.23;44.76;96181.66;5003903;28;19974;-60
2022/04/30 02:23:39;;;;;;;;;;;;;;;7.28;44.06;96179.41;5012757;28;19990;-61
2022/04/30 02:26:04;;;;;;;;;;;;;;;7.65;43.57;96171.63;5015509;28;20429;-61
2022/04/30 02:28:30;;;;;;;;;;;;;;;7.94;42.70;96172.47;5017078;28;19997;-61
2022/04/30 02:30:57;;;;;;;;;;;;;;;8.12;42.28;96170.72;5013361;28;20001;-61
2022/04/30 02:33:22;;;;;;;;;;;;;;;7.99;42.46;96164.94;5018379;28;19963;-62
2022/04/30 02:35:47;;;;;;;;;;;;;;;6.75;45.54;96170.16;5011698;28;20019;-62
2022/04/30 02:38:13;;;;;;;;;;;;;;;6.60;46.32;96161.81;5015699;28;20439;-61
2022/04/30 02:40:39;;;;;;;;;;;;;;;6.59;46.28;96165.41;5011239;28;20478;-63
2022/04/30 02:43:07;;;;;;;;;;;;;;;7.11;44.85;96158.97;5020719;28;20033;-64
2022/04/30 02:45:33;;;;;;;;;;;;;;;7.26;44.28;96164.63;5006373;28;20356;-64
2022/04/30 02:47:58;;;;;;;;;;;;;;;7.47;44.26;96156.47;5024582;28;19989;-64
2022/04/30 02:50:24;;;;;;;;;;;;;;;7.36;44.32;96159.31;5016539;28;20135;-65
2022/04/30 02:52:49;;;;;;;;;;;;;;;7.59;43.71;96159.78;5025372;28;20447;-63
2022/04/30 02:55:15;;;;;;;;;;;;;;;7.30;44.77;96165.16;5012257;28;19993;-64
2022/04/30 03:00:26;;;;;;;;;;;;;;;7.12;44.93;96155.31;5019940;28;20545;-64
2022/04/30 03:02:51;;;;;;;;;;;;;;;7.00;45.19;96157.28;5025079;28;20028;-64
2022/04/30 03:05:17;;;;;;;;;;;;;;;7.22;44.87;96153.50;5012655;28;20353;-64
2022/04/30 03:07:43;;;;;;;;;;;;;;;6.92;45.58;96151.88;5023226;28;20043;-63
2022/04/30 03:10:08;;;;;;;;;;;;;;;6.58;46.42;96145.22;5020500;28;19964;-64
2022/04/30 03:12:34;;;;;;;;;;;;;;;7.01;45.48;96151.84;5024346;28;19998;-64
2022/04/30 03:14:59;;;;;;;;;;;;;;;6.70;45.90;96154.69;5024107;28;19994;-64
2022/04/30 03:22:53;;;;;;;;;;;;;;;5.82;48.77;96158.84;5022664;28;20540;-65
2022/04/30 03:25:18;;;;;;;;;;;;;;;6.16;47.87;96152.41;5012287;28;19972;-65
2022/04/30 03:27:43;;;;;;;;;;;;;;;5.19;50.22;96160.69;5024545;28;19994;-64
2022/04/30 03:30:09;;;;;;;;;;;;;;;6.00;48.69;96158.22;5011782;28;20470;-64
2022/04/30 03:32:34;;;;;;;;;;;;;;;6.50;47.00;96148.56;5024979;28;20088;-63
2022/04/30 03:34:59;;;;;;;;;;;;;;;6.44;46.97;96144.66;5011151;28;19997;-62
2022/04/30 03:37:24;;;;;;;;;;;;;;;6.32;47.26;96145.75;5024680;28;20060;-65
2022/04/30 03:39:50;;;;;;;;;;;;;;;6.04;48.09;96145.56;5006962;28;20435;-64
2022/04/30 03:42:15;;;;;;;;;;;;;;;6.07;47.66;96142.66;5023666;28;19981;-64
2022/04/30 03:44:40;;;;;;;;;;;;;;;5.76;48.61;96145.34;5014016;28;20080;-64
2022/04/30 03:47:05;;;;;;;;;;;;;;;5.99;48.29;96140.69;5021956;28;20028;-63
2022/04/30 03:49:31;;;;;;;;;;;;;;;5.96;48.53;96140.97;5019977;28;19981;-63
2022/04/30 03:51:56;;;;;;;;;;;;;;;6.43;47.11;96131.56;5024113;28;20021;-65
2022/04/30 03:54:21;;;;;;;;;;;;;;;6.45;46.70;96138.38;5016614;28;20036;-64
2022/04/30 03:56:47;;;;;;;;;;;;;;;6.47;46.69;96135.59;5019190;28;20029;-63
2022/04/30 03:59:12;;;;;;;;;;;;;;;6.60;46.10;96144.09;5017122;28;20020;-64
2022/04/30 04:01:37;;;;;;;;;;;;;;;6.68;45.92;96140.78;5017040;28;20090;-64
2022/04/30 04:04:03;;;;;;;;;;;;;;;6.10;47.47;96142.38;5019002;28;20044;-64
2022/04/30 04:06:28;;;;;;;;;;;;;;;6.93;45.56;96143.78;5015883;28;20088;-64
2022/04/30 04:08:54;;;;;;;;;;;;;;;6.03;47.32;96147.38;5014797;28;20318;-62
2022/04/30 04:11:20;;;;;;;;;;;;;;;5.58;49.46;96148.66;5014119;28;19993;-65
2022/04/30 04:19:13;;;;;;;;;;;;;;;5.59;48.62;96155.59;5017770;28;19992;-64
2022/04/30 04:21:38;;;;;;;;;;;;;;;5.62;49.49;96150.06;5015031;28;20000;-64
2022/04/30 04:26:48;;;;;;;;;;;;;;;5.31;49.03;96158.78;5017965;28;20047;-64
2022/04/30 04:29:16;;;;;;;;;;;;;;;4.99;50.65;96156.25;5018301;28;20435;-64
2022/04/30 04:31:41;;;;;;;;;;;;;;;6.04;47.80;96148.19;5014709;28;20001;-63
2022/04/30 04:34:06;;;;;;;;;;;;;;;6.17;47.25;96154.09;5019297;28;20008;-64
2022/04/30 04:36:31;;;;;;;;;;;;;;;5.67;48.65;96158.41;5022865;28;19997;-64
2022/04/30 04:38:57;;;;;;;;;;;;;;;5.73;48.45;96165.81;5011735;28;20379;-64
2022/04/30 04:41:22;;;;;;;;;;;;;;;5.50;49.00;96164.31;5013554;28;19970;-63
2022/04/30 04:43:47;;;;;;;;;;;;;;;5.12;50.12;96162.19;5021322;28;19994;-63
2022/04/30 04:46:12;;;;;;;;;;;;;;;5.49;48.55;96163.47;5011909;28;19979;-66
2022/04/30 04:48:38;;;;;;;;;;;;;;;5.74;47.81;96163.97;5020438;28;20053;-63
2022/04/30 04:51:03;;;;;;;;;;;;;;;5.98;47.78;96166.28;5019684;28;20084;-64
2022/04/30 04:53:29;;;;;;;;;;;;;;;6.25;47.14;96164.81;5022232;28;20334;-65
2022/04/30 04:55:54;;;;;;;;;;;;;;;6.11;47.18;96175.75;5008871;28;20103;-64
2022/04/30 04:58:19;;;;;;;;;;;;;;;5.54;48.15;96177.13;5023275;28;20377;-63
2022/04/30 05:00:44;;;;;;;;;;;;;;;6.30;46.21;96174.13;5009574;28;19998;-64
2022/04/30 05:03:10;;;;;;;;;;;;;;;6.31;46.38;96168.72;5021126;28;20507;-65
2022/04/30 05:05:35;;;;;;;;;;;;;;;5.25;48.90;96180.47;5023412;28;19980;-63
2022/04/30 05:08:01;;;;;;;;;;;;;;;5.05;49.16;96179.47;5019138;28;20013;-64
2022/04/30 05:10:26;;;;;;;;;;;;;;;6.03;47.79;96178.25;5010658;28;20461;-63
2022/04/30 05:12:51;;;;;;;;;;;;;;;6.27;46.69;96177.03;5022858;28;20400;-63
2022/04/30 05:15:16;;;;;;;;;;;;;;;5.42;48.34;96184.31;5010337;28;19993;-65
2022/04/30 05:17:41;;;;;;;;;;;;;;;5.82;47.85;96181.81;5022882;28;19969;-63
2022/04/30 05:20:07;;;;;;;;;;;;;;;6.35;46.13;96175.41;5010220;28;19997;-64
2022/04/30 05:22:33;;;;;;;;;;;;;;;6.67;45.79;96173.50;5022955;28;20064;-64
2022/04/30 05:24:58;;;;;;;;;;;;;;;6.37;45.63;96185.84;5021664;28;19991;-64
2022/04/30 05:27:23;;;;;;;;;;;;;;;6.43;46.52;96182.63;5022906;28;20673;-65
2022/04/30 05:29:48;;;;;;;;;;;;;;;5.65;48.93;96189.41;5009995;28;20001;-64
2022/04/30 05:32:14;;;;;;;;;;;;;;;5.92;47.09;96184.50;5022798;28;20001;-63
2022/04/30 05:34:39;;;;;;;;;;;;;;;5.91;47.08;96188.13;5013130;28;19993;-63
2022/04/30 05:37:04;;;;;;;;;;;;;;;4.87;49.56;96192.41;5022824;28;20470;-64
2022/04/30 05:39:30;;;;;;;;;;;;;;;6.17;47.56;96185.81;5020208;28;19993;-63
2022/04/30 05:41:55;;;;;;;;;;;;;;;6.31;46.00;96183.72;5011306;28;20486;-64
2022/04/30 05:44:20;;;;;;;;;;;;;;;6.27;46.03;96174.41;5018834;28;19997;-65
2022/04/30 05:46:46;;;;;;;;;;;;;;;5.86;47.34;96194.63;5022168;28;20366;-63
2022/04/30 05:49:11;;;;;;;;;;;;;;;5.67;48.04;96195.38;5020261;28;20072;-63
2022/04/30 05:51:36;;;;;;;;;;;;;;;5.67;47.64;96194.53;5020254;28;20004;-64
2022/04/30 05:54:01;;;;;;;;;;;;;;;5.83;47.73;96188.78;5022629;28;19999;-63
2022/04/30 05:56:27;;;;;;;;;;;;;;;6.03;47.42;96189.69;5010484;28;20000;-65
2022/04/30 05:58:52;;;;;;;;;;;;;;;5.91;47.42;96191.56;5021139;28;19997;-64
2022/04/30 06:01:18;;;;;;;;;;;;;;;6.18;47.06;96191.91;5021123;28;19991;-62
2022/04/30 06:03:43;;;;;;;;;;;;;;;5.96;47.19;96199.09;5020395;28;20369;-64
2022/04/30 06:06:08;;;;;;;;;;;;;;;6.34;46.82;96194.03;5014015;28;20013;-64
2022/04/30 06:08:34;;;;;;;;;;;;;;;6.44;46.35;96189.63;5011189;28;19986;-63
2022/04/30 06:11:00;;;;;;;;;;;;;;;6.73;45.95;96201.19;5020252;28;19998;-64
2022/04/30 06:13:25;;;;;;;;;;;;;;;6.92;45.19;96194.22;5022511;28;19977;-62
2022/04/30 06:15:50;;;;;;;;;;;;;;;6.64;44.89;96203.69;5004091;28;20000;-64
2022/04/30 06:18:16;;;;;;;;;;;;;;;6.27;46.16;96203.50;5017189;28;19965;-64
2022/04/30 06:20:42;;;;;;;;;;;;;;;6.68;45.49;96206.06;5008387;28;20006;-60
2022/04/30 06:23:07;;;;;;;;;;;;;;;5.96;47.06;96223.72;5004288;28;20309;-61
2022/04/30 06:25:34;;;;;;;;;;;;;;;6.95;44.64;96210.69;5005894;28;20310;-61
2022/04/30 06:28:01;;;;;;;;;;;;;;;6.81;45.06;96216.38;5010726;28;20224;-61
2022/04/30 06:30:26;;;;;;;;;;;;;;;7.30;44.00;96218.13;5015560;28;20005;-63
2022/04/30 06:32:53;;;;;;;;;;;;;;;6.61;45.25;96221.69;5017724;28;20522;-61
2022/04/30 06:35:18;;;;;;;;;;;;;;;7.18;44.32;96222.78;5013829;28;20033;-62
2022/04/30 06:37:44;;;;;;;;;;;;;;;7.38;43.63;96227.06;5004710;28;19969;-61
2022/04/30 06:40:09;;;;;;;;;;;;;;;6.76;44.50;96230.88;4999857;28;19993;-61
2022/04/30 06:42:40;;;;;;;;;;;;;;;7.01;44.22;96219.88;5017875;28;20067;-62
2022/04/30 06:45:05;;;;;;;;;;;;;;;6.99;44.65;96230.59;5016298;28;19977;-63
2022/04/30 06:47:30;;;;;;;;;;;;;;;6.26;46.17;96229.13;5016591;28;20620;-64
2022/04/30 06:49:56;;;;;;;;;;;;;;;5.89;46.75;96234.97;5016563;28;20014;-64
2022/04/30 06:52:21;;;;;;;;;;;;;;;6.02;46.59;96234.75;5016115;28;20012;-63
2022/04/30 06:57:30;;;;;;;;;;;;;;;5.73;48.03;96229.22;5010189;28;20023;-63
2022/04/30 06:59:57;;;;;;;;;;;;;;;6.37;46.79;96233.44;5003877;28;20011;-63
2022/04/30 07:02:23;;;;;;;;;;;;;;;6.29;45.64;96226.19;5017256;28;19978;-64
2022/04/30 07:04:52;;;;;;;;;;;;;;;6.61;45.54;96232.25;5004786;28;20529;-65
2022/04/30 07:07:17;;;;;;;;;;;;;;;6.33;45.26;96224.13;5016986;28;20459;-63
2022/04/30 07:09:43;;;;;;;;;;;;;;;5.83;46.89;96231.06;5002149;28;19978;-64
2022/04/30 07:12:09;;;;;;;;;;;;;;;5.84;46.61;96235.34;5017407;28;20388;-63
2022/04/30 07:14:36;;;;;;;;;;;;;;;6.37;45.66;96231.63;5004134;28;20650;-63
2022/04/30 07:17:05;;;;;;;;;;;;;;;6.69;45.05;96229.75;5013399;28;19978;-63
2022/04/30 07:19:30;;;;;;;;;;;;;;;5.70;45.96;96225.97;5013203;28;20482;-63
2022/04/30 07:21:55;;;;;;;;;;;;;;;5.44;48.25;96234.34;5016744;28;19978;-63
2022/04/30 07:24:20;;;;;;;;;;;;;;;6.07;46.03;96230.72;5004217;28;20041;-65
2022/04/30 07:26:46;;;;;;;;;;;;;;;6.79;44.51;96227.09;5006141;28;20279;-64
2022/04/30 07:29:11;;;;;;;;;;;;;;;7.10;43.61;96226.97;5011986;28;20008;-63
2022/04/30 07:31:36;;;;;;;;;;;;;;;6.99;43.98;96227.94;5005247;28;20465;-63
2022/04/30 07:34:02;;;;;;;;;;;;;;;7.05;43.25;96237.16;5010872;28;20015;-64
2022/04/30 07:36:28;;;;;;;;;;;;;;;7.13;42.54;96231.13;5007713;28;20453;-63
2022/04/30 07:38:55;;;;;;;;;;;;;;;7.64;41.89;96236.19;5009591;28;20001;-63
2022/04/30 07:41:20;;;;;;;;;;;;;;;8.02;41.71;96234.41;5017006;28;19969;-64
2022/04/30 07:43:45;;;;;;;;;;;;;;;8.20;41.64;96233.63;5020729;28;20579;-63
2022/04/30 07:46:10;;;;;;;;;;;;;;;8.13;40.91;96235.22;5009795;28;19972;-65
2022/04/30 07:48:36;;;;;;;;;;;;;;;8.62;40.85;96234.91;5014503;28;20062;-64
2022/04/30 07:51:01;;;;;;;;;;;;;;;7.83;40.26;96234.50;5019470;28;20002;-64
2022/04/30 07:53:26;;;;;;;;;;;;;;;7.37;43.24;96243.09;5021010;28;19977;-65
2022/04/30 07:55:53;;;;;;;;;;;;;;;7.69;41.10;96249.88;5020590;28;19996;-64
2022/04/30 07:58:18;;;;;;;;;;;;;;;8.00;40.69;96247.00;5009163;28;20497;-65
2022/04/30 08:00:43;;;;;;;;;;;;;;;8.02;41.41;96242.38;5017632;28;20248;-64
2022/04/30 08:03:08;;;;;;;;;;;;;;;8.86;39.50;96246.75;5010690;28;20401;-64
2022/04/30 08:05:34;;;;;;;;;;;;;;;9.35;39.15;96242.03;5020584;28;19972;-65
2022/04/30 08:08:00;;;;;;;;;;;;;;;9.36;38.68;96241.03;5016037;28;19992;-64
2022/04/30 08:10:25;;;;;;;;;;;;;;;7.95;40.14;96240.47;5018258;28;19974;-64
2022/04/30 08:12:51;;;;;;;;;;;;;;;8.76;40.49;96244.19;5020631;28;20959;-63
2022/04/30 08:15:16;;;;;;;;;;;;;;;8.91;39.65;96241.81;5020007;28;19993;-64
2022/04/30 08:17:41;;;;;;;;;;;;;;;9.27;37.93;96241.00;5020198;28;19970;-64
2022/04/30 08:20:06;;;;;;;;;;;;;;;10.11;37.05;96237.03;5018737;28;20015;-64
2022/04/30 08:22:32;;;;;;;;;;;;;;;10.31;37.35;96244.75;5019865;28;19981;-64
2022/04/30 08:24:57;;;;;;;;;;;;;;;8.43;40.58;96254.44;5020307;28;20023;-63
2022/04/30 08:27:22;;;;;;;;;;;;;;;9.20;40.00;96255.88;5019599;28;19981;-64
2022/04/30 08:29:48;;;;;;;;;;;;;;;9.63;38.57;96257.84;5019310;28;20003;-65
2022/04/30 08:32:15;;;;;;;;;;;;;;;9.44;37.30;96244.59;5019833;28;20055;-64
2022/04/30 08:34:40;;;;;;;;;;;;;;;9.69;38.25;96249.25;5019749;28;19994;-64
2022/04/30 08:37:05;;;;;;;;;;;;;;;9.93;38.37;96245.06;5019990;28;20047;-65
2022/04/30 08:39:31;;;;;;;;;;;;;;;9.18;39.11;96241.94;5007913;28;20037;-64
2022/04/30 08:41:58;;;;;;;;;;;;;;;10.23;36.98;96242.88;5019939;28;20460;-64
2022/04/30 08:44:23;;;;;;;;;;;;;;;9.68;37.59;96244.91;5019445;28;19986;-65
2022/04/30 08:46:48;;;;;;;;;;;;;;;10.36;37.32;96248.59;5019793;28;19991;-65
2022/04/30 08:49:14;;;;;;;;;;;;;;;10.44;37.10;96239.78;5018836;28;20277;-64
2022/04/30 08:51:39;;;;;;;;;;;;;;;10.45;36.10;96244.16;5019401;28;20542;-64
2022/04/30 08:54:04;;;;;;;;;;;;;;;9.37;37.98;96251.53;5015717;28;19987;-64
2022/04/30 08:56:29;;;;;;;;;;;;;;;10.52;36.76;96244.31;5011092;28;20491;-64
2022/04/30 08:59:02;;;;;;;;;;;;;;;11.17;35.50;96243.78;5009520;28;20013;-63
2022/04/30 09:01:27;;;;;;;;;;;;;;;10.13;37.02;96252.84;5016906;28;20212;-64
2022/04/30 09:03:53;;;;;;;;;;;;;;;9.62;37.05;96253.53;5017397;28;20473;-62
2022/04/30 09:06:19;;;;;;;;;;;;;;;10.26;36.68;96252.41;5018718;28;20586;-63
2022/04/30 09:08:47;;;;;;;;;;;;;;;10.59;36.41;96247.16;5008697;28;20054;-64
2022/04/30 09:11:13;;;;;;;;;;;;;;;10.83;35.25;96249.06;5016068;28;19995;-64
2022/04/30 09:13:41;;;;;;;;;;;;;;;10.07;36.24;96255.13;5019029;28;19973;-64
2022/04/30 09:16:15;;;;;;;;;;;;;;;9.80;36.17;96248.97;5018635;28;19999;-65
2022/04/30 09:18:41;;;;;;;;;;;;;;;11.50;34.64;96238.44;5009992;28;19991;-63
2022/04/30 09:21:06;;;;;;;;;;;;;;;12.08;34.25;96241.00;5017086;28;20379;-64
2022/04/30 09:23:34;;;;;;;;;;;;;;;12.11;33.94;96239.81;5015454;28;20283;-64
2022/04/30 09:26:02;;;;;;;;;;;;;;;11.64;34.13;96243.09;5003085;28;20462;-63
2022/04/30 09:28:28;;;;;;;;;;;;;;;11.69;34.21;96239.06;5017746;28;19991;-64
2022/04/30 09:31:09;;;;;;;;;;;;;;;10.66;35.76;96236.69;5017649;28;20132;-65
2022/04/30 09:33:35;;;;;;;;;;;;;;;10.49;35.39;96240.16;5018915;28;20057;-64
2022/04/30 09:38:45;;;;;;;;;;;;;;;10.61;35.02;96235.34;5017868;28;20048;-64
2022/04/30 09:41:10;;;;;;;;;;;;;;;10.05;36.38;96241.16;5018026;28;19973;-64
2022/04/30 09:43:36;;;;;;;;;;;;;;;9.57;36.98;96248.66;5013431;28;20070;-64
2022/04/30 09:46:01;;;;;;;;;;;;;;;9.27;38.62;96248.13;5006359;28;20005;-64
2022/04/30 09:53:57;;;;;;;;;;;;;;;9.16;39.74;96246.53;5013089;28;20004;-63
2022/04/30 09:56:33;;;;;;;;;;;;;;;9.30;39.60;96240.69;5013759;28;20461;-65
2022/04/30 09:58:58;;;;;;;;;;;;;;;8.73;40.31;96247.13;5017786;28;19993;-64
2022/04/30 10:01:24;;;;;;;;;;;;;;;7.99;42.92;96242.66;5004617;28;20090;-65
2022/04/30 10:03:49;;;;;;;;;;;;;;;8.68;40.82;96239.59;5015979;28;19997;-64
2022/04/30 10:06:15;;;;;;;;;;;;;;;8.76;40.95;96241.53;5014890;28;20177;-63
2022/04/30 10:08:40;;;;;;;;;;;;;;;9.72;38.82;96247.09;5014566;28;19988;-65
2022/04/30 10:11:26;;;;;;;;;;;;;;;9.26;38.67;96241.16;5017644;28;20482;-64
2022/04/30 10:14:09;;;;;;;;;;;;;;;9.59;37.47;96244.03;5016600;28;20400;-63
2022/04/30 10:16:34;;;;;;;;;;;;;;;9.41;39.17;96246.72;5015885;28;19993;-64
2022/04/30 10:19:09;;;;;;;;;;;;;;;9.86;38.32;96239.53;5005429;28;20326;-63
2022/04/30 10:21:34;;;;;;;;;;;;;;;9.37;37.60;96237.41;5005794;28;19977;-64
2022/04/30 10:24:03;;;;;;;;;;;;;;;9.71;36.91;96241.94;5017701;28;20391;-63
2022/04/30 10:26:28;;;;;;;;;;;;;;;9.35;38.56;96232.22;5017441;28;19970;-63
2022/04/30 10:29:12;;;;;;;;;;;;;;;9.06;37.92;96234.19;5017683;28;19967;-63
2022/04/30 10:31:41;;;;;;;;;;;;;;;9.75;37.64;96235.31;5017559;28;20007;-63
2022/04/30 10:34:07;;;;;;;;;;;;;;;10.53;36.82;96226.50;5017461;28;20101;-63
2022/04/30 10:36:32;;;;;;;;;;;;;;;11.32;34.47;96226.09;5017646;28;20093;-63
2022/04/30 10:39:06;;;;;;;;;;;;;;;11.34;34.83;96226.78;5011201;28;20017;-63
2022/04/30 10:41:41;;;;;;;;;;;;;;;11.02;35.06;96220.44;5017995;28;20504;-64
2022/04/30 10:44:07;;;;;;;;;;;;;;;11.45;35.18;96217.59;5017094;28;20035;-63
2022/04/30 10:46:36;;;;;;;;;;;;;;;11.22;35.18;96209.47;5016076;28;20032;-64
2022/04/30 10:49:02;;;;;;;;;;;;;;;11.36;33.14;96222.09;5016553;28;20426;-64
2022/04/30 10:51:31;;;;;;;;;;;;;;;11.21;34.02;96216.63;5017033;28;20231;-64
2022/04/30 10:53:56;;;;;;;;;;;;;;;9.60;37.20;96227.09;5017721;28;19972;-63
2022/04/30 10:56:21;;;;;;;;;;;;;;;9.52;38.30;96227.88;5015723;28;20025;-63
2022/04/30 10:58:48;;;;;;;;;;;;;;;9.63;37.24;96221.47;5009820;28;20417;-63
2022/04/30 11:01:17;;;;;;;;;;;;;;;9.83;37.72;96211.41;5012557;28;20032;-63
2022/04/30 11:03:42;;;;;;;;;;;;;;;10.03;36.73;96219.16;5014806;28;20075;-63
2022/04/30 11:06:11;;;;;;;;;;;;;;;10.66;35.28;96196.75;5017437;28;20071;-64
2022/04/30 11:08:37;;;;;;;;;;;;;;;10.42;36.68;96206.34;5011049;28;20311;-64
2022/04/30 11:11:02;;;;;;;;;;;;;;;10.81;35.72;96205.75;5016225;28;20540;-64
2022/04/30 11:13:27;;;;;;;;;;;;;;;10.45;36.64;96211.34;5021278;28;20062;-63
2022/04/30 11:15:52;;;;;;;;;;;;;;;10.57;36.55;96202.06;5020936;28;19993;-64
2022/04/30 11:18:18;;;;;;;;;;;;;;;10.75;36.92;96201.91;5015706;28;20282;-64
2022/04/30 11:20:43;;;;;;;;;;;;;;;9.97;35.57;96214.50;5015415;28;20019;-64
2022/04/30 11:23:09;;;;;;;;;;;;;;;9.38;36.92;96207.19;5021207;28;19999;-64
2022/04/30 11:25:35;;;;;;;;;;;;;;;9.44;38.40;96214.53;5019339;28;20178;-64
2022/04/30 11:28:01;;;;;;;;;;;;;;;8.81;40.01;96212.69;5019672;28;19997;-64
2022/04/30 11:30:26;;;;;;;;;;;;;;;9.38;39.64;96209.84;5020144;28;20668;-64
2022/04/30 11:32:51;;;;;;;;;;;;;;;8.69;38.31;96203.28;5019624;28;20031;-64
2022/04/30 11:35:17;;;;;;;;;;;;;;;9.11;39.31;96209.00;5020196;28;20378;-60
2022/04/30 11:37:42;;;;;;;;;;;;;;;10.06;35.94;96208.25;5017889;28;20035;-60
2022/04/30 11:40:08;;;;;;;;;;;;;;;9.90;36.92;96209.00;5009915;28;20080;-61
2022/04/30 11:42:33;;;;;;;;;;;;;;;10.03;37.07;96205.84;5007242;28;19997;-60
2022/04/30 11:44:59;;;;;;;;;;;;;;;10.64;36.09;96198.75;5003594;28;19968;-61
2022/04/30 11:47:24;;;;;;;;;;;;;;;10.73;34.45;96203.09;5005257;28;19988;-61
2022/04/30 11:49:49;;;;;;;;;;;;;;;10.35;35.52;96203.50;5008591;28;20014;-63
2022/04/30 11:52:14;;;;;;;;;;;;;;;10.52;36.33;96193.75;5006504;28;20049;-63
2022/04/30 11:54:40;;;;;;;;;;;;;;;10.88;35.59;96197.94;5016331;28;20084;-63
2022/04/30 11:57:05;;;;;;;;;;;;;;;10.64;36.10;96190.78;5018501;28;19971;-63
2022/04/30 11:59:31;;;;;;;;;;;;;;;11.31;33.77;96197.78;5011186;28;20053;-63
2022/04/30 12:02:06;;;;;;;;;;;;;;;11.56;35.04;96192.41;5020810;28;19966;-63
2022/04/30 12:04:34;;;;;;;;;;;;;;;11.75;33.80;96196.53;5005495;28;20276;-64
2022/04/30 12:07:00;;;;;;;;;;;;;;;11.21;33.33;96199.78;5012058;28;19992;-63
2022/04/30 12:09:30;;;;;;;;;;;;;;;11.42;33.36;96193.94;5013341;28;20037;-63
2022/04/30 12:11:55;;;;;;;;;;;;;;;11.15;34.25;96195.97;5009629;28;20128;-64
2022/04/30 12:14:21;;;;;;;;;;;;;;;10.98;35.26;96190.63;5006178;28;20527;-64
2022/04/30 12:16:46;;;;;;;;;;;;;;;11.16;35.04;96189.66;5018163;28;20087;-64
2022/04/30 12:24:56;;;;;;;;;;;;;;;12.09;32.36;96183.09;5019465;28;19991;-64
2022/04/30 12:27:23;;;;;;;;;;;;;;;12.26;31.39;96183.84;5019329;28;20032;-64
2022/04/30 12:29:58;;;;;;;;;;;;;;;11.64;32.79;96180.91;5019708;28;20050;-64
2022/04/30 12:32:23;;;;;;;;;;;;;;;11.99;30.44;96176.13;5019583;28;19995;-64
2022/04/30 12:34:50;;;;;;;;;;;;;;;12.69;29.34;96175.44;5019778;28;19977;-64
2022/04/30 12:37:15;;;;;;;;;;;;;;;13.04;30.14;96167.84;5019133;28;20090;-64
2022/04/30 12:39:41;;;;;;;;;;;;;;;12.72;31.85;96171.56;5019329;28;20070;-64
2022/04/30 12:42:09;;;;;;;;;;;;;;;12.67;31.16;96167.59;5019611;28;19968;-64
2022/04/30 12:44:34;;;;;;;;;;;;;;;13.22;30.56;96165.84;5019810;28;20154;-64
2022/04/30 12:46:59;;;;;;;;;;;;;;;13.68;30.40;96160.38;5018900;28;20075;-64
2022/04/30 12:49:25;;;;;;;;;;;;;;;13.18;29.14;96160.88;5015451;28;20027;-61
2022/04/30 12:51:50;;;;;;;;;;;;;;;13.13;29.51;96155.22;5018518;28;20025;-64
2022/04/30 12:54:16;;;;;;;;;;;;;;;13.04;30.45;96157.16;5019295;28;20016;-63
2022/04/30 12:56:42;;;;;;;;;;;;;;;12.83;30.06;96155.13;5019530;28;19962;-63
2022/04/30 12:59:07;;;;;;;;;;;;;;;12.75;29.25;96152.50;5017330;28;20011;-63
2022/04/30 13:01:34;;;;;;;;;;;;;;;11.96;31.06;96152.44;5019659;28;20038;-63
2022/04/30 13:03:59;;;;;;;;;;;;;;;11.39;32.07;96155.13;5001315;28;20028;-63
2022/04/30 13:06:25;;;;;;;;;;;;;;;11.39;31.85;96157.78;5003260;28;19963;-63
2022/04/30 13:14:18;;;;;;;;;;;;;;;9.50;35.27;96152.78;4999851;28;20445;-64
2022/04/30 13:16:43;;;;;;;;;;;;;;;9.52;36.88;96148.13;5000370;28;19973;-64
2022/04/30 13:19:10;;;;;;;;;;;;;;;9.96;34.56;96141.00;5008487;28;20364;-64
2022/04/30 13:21:35;;;;;;;;;;;;;;;10.06;36.17;96139.06;5002915;28;20619;-64
2022/04/30 13:24:00;;;;;;;;;;;;;;;9.83;35.69;96144.13;5002228;28;19989;-63
2022/04/30 13:26:26;;;;;;;;;;;;;;;10.08;35.71;96138.91;5000599;28;19968;-64
2022/04/30 13:28:51;;;;;;;;;;;;;;;10.28;35.25;96141.28;4998646;28;19966;-64
2022/04/30 13:31:16;;;;;;;;;;;;;;;10.24;35.85;96132.81;5001389;28;20039;-64
2022/04/30 13:33:41;;;;;;;;;;;;;;;10.26;34.13;96128.13;5004099;28;20032;-60